Tiempo atmosférico en la estación meteorológica de Aguilar de la Frontera, Córdoba (305 m.)



Fecha
DESCASC
Temp. máxima en grados centígrados (hora)
DESCASC
Temp. mínima en grados centígrados (hora)
DESCASC
Temp. media en grados centígrados
DESCASC
Racha de viento máxima en m/sg (hora)
DESCASC
Velocidad máxima media en intervalos de 10 minutos(hora)
DESCASC
Precipitaciones diarias en mm
DESCASC
Precipitaciones de 00:00 a 06:00 en mm
DESCASC
Precipitaciones de 06:00 a 12:00 en mm
DESCASC
Precipitaciones de 12:00 a 18:00 en mm
DESCASC
Precipitaciones de 18:00 a 24:00 en mm
DESCASC
22-11-2020 18.6 (13:20) 8.1 (23:50) 13.4 6.94 (11:10) 4.72 (06:20) 0 0 0 0 0
21-11-2020 21.2 (14:40) 7.5 (06:20) 14.4 7.5 (11:50) 4.72 (11:40) 0 0 0 0 0
20-11-2020 22.4 (15:40) 9.3 (07:50) 15.8 8.33 (16:30) 4.72 (16:40) 0 0 0 0 0
19-11-2020 25.5 (16:10) 11.4 (00:00) 18.4 6.67 (18:50) 4.17 (22:20) 0 0 0 0 0
18-11-2020 24.5 (15:50) 10.3 (00:00) 17.4 7.22 (10:40) 5 (08:20) 0 0 0 0 0
17-11-2020 23.7 (16:00) 11.4 (00:00) 17.6 5 (23:59) 4.17 (23:59) 0 0 0 0 0
16-11-2020 22 (15:40) 13.4 (00:00) 17.7 6.11 (01:30) 4.72 (01:30) 0 0 0 0 0
15-11-2020 25.2 (15:20) 12.3 (00:00) 18.8 6.11 (23:10) 4.44 (22:50) 0.2 0 0.2 0 0
14-11-2020 17.8 (17:10) 14.2 (00:00) 16 5.83 (14:00) 3.61 (13:50) 1 0 0.2 0.6 0.2
13-11-2020 22.9 (15:30) 8.7 (00:00) 15.8 6.11 (02:50) 4.44 (02:40) 0 0 0 0 0
12-11-2020 21.2 (16:10) 9.1 (00:00) 15.2 7.5 (17:10) 4.72 (17:10) 0 0 0 0 0
11-11-2020 22 (15:50) 8.4 (00:00) 15.2 5.28 (00:30) 4.17 (00:30) 0 0 0 0 0
10-11-2020 20.8 (15:50) 7.1 (00:00) 13.9 6.39 (23:00) 4.44 (23:00) 0.2 0 0.2 0 0
09-11-2020 19.2 (14:00) 9.9 (00:00) 14.6 4.17 (15:20) 3.06 (03:20) 0 0 0 0 0
08-11-2020 21.7 (13:40) 10.5 (00:00) 16.1 5.83 (10:30) 4.44 (08:00) 0 0 0 0 0
07-11-2020 19.7 (14:00) 11.7 (00:00) 15.7 14.72 (03:00) 6.94 (03:10) 11 7.2 3.8 0 0
06-11-2020 -- (--) -- (--) -- 11.11 (13:20) 5.83 (08:50) -- -- -- 0 1.4
05-11-2020 16.9 (05:50) 13.2 (00:00) 15 11.11 (05:40) 6.11 (05:40) -- -- -- -- --
04-11-2020 18 (16:10) 12.8 (00:00) 15.4 6.94 (17:40) 3.61 (05:00) -- -- -- -- --
03-11-2020 24.7 (16:10) 9.9 (00:00) 17.3 5.56 (17:20) 3.89 (17:20) -- -- -- -- --
02-11-2020 27.6 (15:50) 10.9 (00:00) 19.3 4.72 (23:50) 3.61 (00:30) -- -- -- -- --
01-11-2020 26.4 (15:30) 10.3 (00:00) 18.3 4.44 (23:40) 3.89 (23:40) -- -- -- -- --
31-10-2020 26 (15:30) 11.3 (00:00) 18.7 5.83 (01:20) 4.72 (01:20) -- -- -- -- --
30-10-2020 26 (15:00) 11 (00:00) 18.5 5.83 (22:00) 4.44 (22:00) -- -- -- -- --
29-10-2020 26 (15:40) 8.3 (00:00) 17.2 6.39 (20:10) 3.89 (21:00) -- -- -- -- --
28-10-2020 20.6 (16:10) 6.6 (00:00) 13.6 6.11 (15:10) 3.89 (14:20) -- -- -- -- --
27-10-2020 18.2 (15:30) 5.9 (00:00) 12.1 5 (17:00) 3.61 (06:50) -- -- -- -- --

Gráficas

Temp. máximas Temp. mínimas Temp. medias Precipitaciones Rachas de viento máximas Velocidades máximas media en intervalos de 10 minutos

Datos horarios

Fecha y hora oficial Temperatura (ºC) Velocidad del viento (km/h) Dirección del viento Racha (km/h) Dirección de racha Precipitación (mm) Presión (hPa) Tendencia (hPa) Humedad (%)
2020-11-25 23:00:00 10.6 4 Nordeste 6 Nordeste 1.4 -- -- 95
2020-11-25 22:00:00 10.7 6 Este 9 Este 0.2 -- -- 94
2020-11-25 21:00:00 11.1 6 Este 25 Este 0 -- -- 94
2020-11-25 20:00:00 11.1 15 Este 25 Este 1.2 -- -- 95
2020-11-25 19:00:00 11.5 11 Este 16 Este 3.6 -- -- 94
2020-11-25 18:00:00 12 5 Sudeste 19 Sudeste 1.2 -- -- 91
2020-11-25 17:00:00 12.2 8 Este 13 Este 0 -- -- 92
2020-11-25 16:00:00 12.3 6 Sudoeste 22 Sudoeste 0.2 -- -- 90
2020-11-25 15:00:00 12.4 9 Sudoeste 51 Sudoeste 0.8 -- -- 89
2020-11-25 14:00:00 18.8 19 Sur 33 Sur 0 -- -- 57
2020-11-25 13:00:00 18.5 18 Sudeste 30 Sur 0 -- -- 59
2020-11-25 12:00:00 17.2 12 Sudeste 23 Sudeste 0 -- -- 63
2020-11-25 11:00:00 15.3 13 Sudeste 23 Sudeste 0 -- -- 68
2020-11-25 10:00:00 12.3 12 Sudeste 19 Sudeste 0 -- -- 79
2020-11-25 09:00:00 10.9 11 Sudeste 18 Sudeste 0 -- -- 84
2020-11-25 08:00:00 9.8 13 Sudeste 17 Sudeste 0 -- -- 89
2020-11-25 07:00:00 10.8 11 Sudeste 18 Sudeste 0 -- -- 88
2020-11-25 06:00:00 10.4 14 Sudeste 18 Sudeste 0 -- -- 88
2020-11-25 05:00:00 11.2 13 Sudeste 18 Sudeste 0 -- -- 85
2020-11-25 04:00:00 11.3 13 Sudeste 18 Sudeste 0 -- -- 84
2020-11-25 03:00:00 11.3 11 Sudeste 17 Sudeste 0 -- -- 85
2020-11-25 02:00:00 11.6 12 Sudeste 18 Sudeste 0 -- -- 81
2020-11-25 01:00:00 12 12 Sudeste 15 Sudeste 0 -- -- 75
2020-11-25 00:00:00 13.1 12 Sudeste 18 Sudeste 0 -- -- 70
2020-11-24 23:00:00 12.8 12 Sudeste 19 Sudeste 0 -- -- 66
2020-11-24 22:00:00 12.5 9 Sudeste 17 Este 0 -- -- 67
2020-11-24 21:00:00 12 12 Este 18 Este 0 -- -- 68
2020-11-24 20:00:00 11.5 9 Este 14 Este 0 -- -- 71
2020-11-24 19:00:00 12.6 4 Nordeste 10 Noroeste 0 -- -- 68
2020-11-24 18:00:00 15 5 Noroeste 13 Noroeste 0 -- -- 59
2020-11-24 17:00:00 17.3 8 Noroeste 13 Noroeste 0 -- -- 51
2020-11-24 16:00:00 18.4 8 Noroeste 18 Noroeste 0 -- -- 49
2020-11-24 15:00:00 18.8 9 Oeste 18 Oeste 0 -- -- 49
2020-11-24 14:00:00 18.5 7 Noroeste 12 Oeste 0 -- -- 47
2020-11-24 13:00:00 18 5 Sudoeste 15 Sur 0 -- -- 51
2020-11-24 12:00:00 15.8 11 Sudeste 16 Sudeste 0 -- -- 56
2020-11-24 11:00:00 12.8 7 Sudeste 16 Este 0 -- -- 57
2020-11-24 10:00:00 9.9 9 Sudeste 15 Sudeste 0 -- -- 64
2020-11-24 09:00:00 6.2 3 Este 10 Este 0 -- -- 81
2020-11-24 08:00:00 4.6 3 Sudeste 10 Este 0 -- -- 85
2020-11-24 07:00:00 5.2 3 Este 14 Este 0 -- -- 81
2020-11-24 06:00:00 6.1 10 Este 16 Este 0 -- -- 79
2020-11-24 05:00:00 7.2 10 Sudeste 17 Este 0 -- -- 75
2020-11-24 04:00:00 7.2 12 Este 15 Este 0 -- -- 76
2020-11-24 03:00:00 6.8 7 Este 21 Sudeste 0 -- -- 79
2020-11-24 02:00:00 7.2 16 Sudeste 22 Este 0 -- -- 78
2020-11-24 01:00:00 7.5 13 Sudeste 16 Sudeste 0 -- -- 78
2020-11-24 00:00:00 7.3 10 Este 12 Sudeste 0 -- -- 83
2020-11-23 23:00:00 7.8 4 Nordeste 15 Sudeste 0 -- -- 82
2020-11-23 22:00:00 7.9 5 Nordeste 12 Este 0 -- -- 85
2020-11-23 21:00:00 9 5 Este 9 Este 0 -- -- 82
2020-11-23 20:00:00 11.5 6 Sudeste 21 Sudeste 0 -- -- 74
2020-11-23 19:00:00 12.8 9 Sudeste 21 Sudeste 0 -- -- 65
2020-11-23 18:00:00 15.2 5 Sur 16 Sur 0 -- -- 56
2020-11-23 17:00:00 18.5 11 Sur 17 Sudoeste 0 -- -- 46
2020-11-23 16:00:00 20 4 Sur 12 Sudeste 0 -- -- 40
2020-11-23 15:00:00 19 8 Sur 25 Sudeste 0 -- -- 41
2020-11-23 14:00:00 17.4 3 Norte 9 Norte 0 -- -- 48
2020-11-23 13:00:00 15.7 5 Noroeste 9 Noroeste 0 -- -- 54
2020-11-23 12:00:00 13.9 5 Noroeste 8 Oeste 0 -- -- 61
2020-11-23 11:00:00 12.4 3 Noroeste 12 Este 0 -- -- 64
2020-11-23 10:00:00 10.6 6 Sudeste 9 Sudeste 0 -- -- 71
2020-11-23 09:00:00 6.7 4 Este 14 Sudeste 0 -- -- 86
2020-11-23 08:00:00 5.2 3 Sudeste 14 Sudeste 0 -- -- 87
2020-11-23 07:00:00 5.1 9 Sudeste 14 Sudeste 0 -- -- 90
2020-11-23 06:00:00 5.7 9 Este 12 Sudeste 0 -- -- 88
2020-11-23 05:00:00 7 2 Nordeste 18 Este 0 -- -- 83
2020-11-23 04:00:00 8.5 13 Este 23 Este 0 -- -- 79
2020-11-23 03:00:00 7.7 11 Sudeste 16 Sudeste 0 -- -- 83
2020-11-23 02:00:00 7.7 10 Sudeste 18 Sudeste 0 -- -- 84
2020-11-23 01:00:00 8 8 Sudeste 15 Sudeste 0 -- -- 84
2020-11-23 00:00:00 8.4 12 Sudeste 17 Sudeste 0 -- -- 85
2020-11-22 23:00:00 8.8 11 Sudeste 15 Este 0 -- -- 82
2020-11-22 22:00:00 9.1 10 Sudeste 13 Sudeste 0 -- -- 82
2020-11-22 21:00:00 9 6 Este 12 Sur 0 -- -- 82
2020-11-22 20:00:00 12.1 9 Sur 14 Sur 0 -- -- 71
2020-11-22 19:00:00 13.3 9 Sur 13 Sur 0 -- -- 66
2020-11-22 18:00:00 15.6 2 Este 15 Nordeste 0 -- -- 55
2020-11-22 17:00:00 17.5 7 Norte 13 Norte 0 -- -- 48
2020-11-22 16:00:00 18.4 6 Norte 12 Nordeste 0 -- -- 44
2020-11-22 15:00:00 17.9 8 Norte 16 Norte 0 -- -- 45
2020-11-22 14:00:00 18.1 8 Noroeste 25 Nordeste 0 -- -- 47
2020-11-22 13:00:00 18 9 Sudeste 23 Sudeste 0 -- -- 43
2020-11-22 12:00:00 17 14 Sudeste 25 Sudeste 0 -- -- 46
2020-11-22 11:00:00 15.8 13 Sudeste 21 Este 0 -- -- 54
2020-11-22 10:00:00 13.9 12 Este 18 Este 0 -- -- 59
2020-11-22 09:00:00 10.7 9 Este 18 Este 0 -- -- 72
2020-11-22 08:00:00 8.3 9 Este 19 Este 0 -- -- 81
2020-11-22 07:00:00 9.1 11 Sudeste 22 Este 0 -- -- 81
2020-11-22 06:00:00 9.4 12 Este 18 Sudeste 0 -- -- 82
2020-11-22 05:00:00 9.5 13 Sudeste 15 Sudeste 0 -- -- 84
2020-11-22 04:00:00 8.4 8 Este 9 Sudeste 0 -- -- 90
2020-11-22 03:00:00 10.2 7 Este 13 Sudeste 0 -- -- 84
2020-11-22 02:00:00 11.4 10 Sudeste 15 Este 0 -- -- 80
2020-11-22 01:00:00 11.4 11 Sudeste 15 Este 0 -- -- 80
2020-11-22 00:00:00 11.4 10 Este 14 Este 0 -- -- 80
2020-11-21 23:00:00 12.6 10 Sudeste 18 Sudeste 0 -- -- 75
2020-11-21 22:00:00 11.7 11 Sudeste 15 Sudeste 0 -- -- 79
2020-11-21 21:00:00 12.4 12 Sudeste 15 Sudeste 0 -- -- 74
2020-11-21 20:00:00 13.5 11 Sudeste 21 Sudeste 0 -- -- 70
2020-11-21 19:00:00 15.4 13 Sudeste 21 Sudeste 0 -- -- 62
2020-11-21 18:00:00 17.1 10 Sudeste 20 Sudeste 0 -- -- 55
2020-11-21 17:00:00 19.3 13 Sur 25 Sur 0 -- -- 50
2020-11-21 16:00:00 19.8 14 Sur 24 Sur 0 -- -- 49
2020-11-21 15:00:00 20.6 16 Sur 27 Sur 0 -- -- 47
2020-11-21 14:00:00 20.9 11 Sur 27 Sur 0 -- -- 49
2020-11-21 13:00:00 20.1 12 Sudeste 23 Sur 0 -- -- 55
2020-11-21 12:00:00 18.7 15 Sudeste 27 Sudeste 0 -- -- 63
2020-11-21 11:00:00 17.6 12 Sudeste 21 Sudeste 0 -- -- 66
2020-11-21 10:00:00 14.4 5 Este 14 Sudeste 0 -- -- 73
2020-11-21 09:00:00 9.4 3 Nordeste 9 Sudeste 0 -- -- 92
2020-11-21 08:00:00 8.4 3 Este 8 Este 0 -- -- 92
2020-11-21 07:00:00 8.6 3 Este 8 Este 0 -- -- 96
2020-11-21 06:00:00 7.8 0 Calma 6 Nordeste 0 -- -- 92
2020-11-21 05:00:00 8.2 4 Este 9 Sudeste 0 -- -- 92
2020-11-21 04:00:00 10 3 Sudeste 14 Este 0 -- -- 83
2020-11-21 03:00:00 10.3 8 Este 17 Sudeste 0 -- -- 87
2020-11-21 02:00:00 9.6 8 Sudeste 12 Sudeste 0 -- -- 91
2020-11-21 01:00:00 11.7 2 Sudeste 14 Sudeste 0 -- -- 86
2020-11-21 00:00:00 12.5 10 Sudeste 17 Sudeste 0 -- -- 85
2020-11-20 23:00:00 11.9 8 Este 15 Sudeste 0 -- -- 80
2020-11-20 22:00:00 13.4 9 Sudeste 19 Este 0 -- -- 73
2020-11-20 21:00:00 14.5 14 Sudeste 19 Sudeste 0 -- -- 40
2020-11-20 20:00:00 17.1 14 Este 19 Este 0 -- -- 33
2020-11-20 19:00:00 14.8 10 Nordeste 15 Nordeste 0 -- -- 43
2020-11-20 18:00:00 19.8 11 Nordeste 20 Nordeste 0 -- -- 27
2020-11-20 17:00:00 21.6 14 Nordeste 30 Norte 0 -- -- 26
2020-11-20 16:00:00 22.3 13 Nordeste 27 Norte 0 -- -- 24
2020-11-20 15:00:00 22.1 14 Nordeste 23 Nordeste 0 -- -- 37
2020-11-20 14:00:00 21.6 5 Norte 13 Norte 0 -- -- 45
2020-11-20 13:00:00 20 3 Oeste 8 Oeste 0 -- -- 56
2020-11-20 12:00:00 17.7 2 Noroeste 11 Norte 0 -- -- 63
2020-11-20 11:00:00 16.2 6 Noroeste 11 Norte 0 -- -- 71
2020-11-20 10:00:00 13.8 0 Calma 5 Nordeste 0 -- -- 85
2020-11-20 09:00:00 11.1 0 Calma 16 Sudeste 0 -- -- 95
2020-11-20 08:00:00 9.3 4 Sudeste 10 Sudeste 0 -- -- 94
2020-11-20 07:00:00 10.5 0 Calma 15 Sudeste 0 -- -- 93
2020-11-20 06:00:00 11.2 11 Sudeste 15 Sudeste 0 -- -- 94
2020-11-20 05:00:00 10.8 6 Este 18 Sudeste 0 -- -- 91
2020-11-20 04:00:00 11.5 14 Sudeste 20 Sudeste 0 -- -- 91
2020-11-20 03:00:00 11.9 8 Este 14 Sudeste 0 -- -- 90
2020-11-20 02:00:00 12.5 6 Sudeste 18 Sudeste 0 -- -- 89
2020-11-20 01:00:00 13.1 14 Sudeste 22 Sudeste 0 -- -- 87
2020-11-20 00:00:00 13.8 13 Sudeste 21 Sudeste 0 -- -- 85
2020-11-19 23:00:00 14 10 Sudeste 21 Sudeste 0 -- -- 84
2020-11-19 22:00:00 14.7 14 Sudeste 20 Sudeste 0 -- -- 82
2020-11-19 21:00:00 15.3 14 Sudeste 21 Sudeste 0 -- -- 79
2020-11-19 20:00:00 16.1 10 Sudeste 20 Sudeste 0 -- -- 76
2020-11-19 19:00:00 17.6 14 Sudeste 24 Sudeste 0 -- -- 69
2020-11-19 18:00:00 20.4 7 Sudeste 16 Nordeste 0 -- -- 61
2020-11-19 17:00:00 23.8 9 Nordeste 13 Norte 0 -- -- 39
2020-11-19 16:00:00 25.3 3 Sur 10 Norte 0 -- -- 39
2020-11-19 15:00:00 23.8 6 Norte 13 Norte 0 -- -- 41
2020-11-19 14:00:00 22.9 3 Sur 7 Noroeste 0 -- -- 49
2020-11-19 13:00:00 21.1 3 Sur 11 Sur 0 -- -- 55
2020-11-19 12:00:00 19.7 8 Sudeste 15 Sudeste 0 -- -- 60
2020-11-19 11:00:00 17.7 8 Sudeste 15 Sudeste 0 -- -- 70
2020-11-19 10:00:00 15.5 9 Sudeste 19 Sudeste 0 -- -- 71
2020-11-19 09:00:00 12.6 11 Sudeste 20 Sudeste 0 -- -- 81
2020-11-19 08:00:00 11.4 8 Este 15 Sudeste 0 -- -- 86
2020-11-19 07:00:00 11.7 9 Sudeste 14 Sudeste 0 -- -- 88
2020-11-19 06:00:00 11.8 7 Este 12 Este 0 -- -- 88
2020-11-19 05:00:00 12.3 5 Este 18 Sudeste 0 -- -- 90
2020-11-19 04:00:00 12.6 11 Sudeste 18 Sudeste 0 -- -- 89
2020-11-19 03:00:00 12.6 11 Sudeste 15 Sudeste 0 -- -- 90
2020-11-19 02:00:00 12.6 6 Sudeste 14 Sudeste 0 -- -- 90
2020-11-19 01:00:00 13.4 11 Sudeste 19 Sudeste 0 -- -- 88
2020-11-19 00:00:00 14.2 10 Sudeste 18 Este 0 -- -- 86
2020-11-18 23:00:00 14.1 3 Sudeste 12 Sudeste 0 -- -- 87
2020-11-18 22:00:00 14.4 5 Sudeste 11 Sudeste 0 -- -- 85
2020-11-18 21:00:00 15.6 3 Sudeste 15 Sudeste 0 -- -- 79
2020-11-18 20:00:00 17 12 Sudeste 22 Sudeste 0 -- -- 76
2020-11-18 19:00:00 17.7 11 Sudeste 15 Sudeste 0 -- -- 73
2020-11-18 18:00:00 20.8 8 Sudeste 12 Sudeste 0 -- -- 61
2020-11-18 17:00:00 24.2 7 Sur 9 Sur 0 -- -- 51
2020-11-18 16:00:00 24.4 4 Noroeste 8 Oeste 0 -- -- 45
2020-11-18 15:00:00 23.6 5 Noroeste 8 Oeste 0 -- -- 48
2020-11-18 14:00:00 23.4 5 Noroeste 8 Oeste 0 -- -- 46
2020-11-18 13:00:00 22.2 3 Este 10 Este 0 -- -- 49
2020-11-18 12:00:00 20.8 8 Sudeste 20 Sudeste 0 -- -- 54
2020-11-18 11:00:00 18.3 13 Sudeste 26 Sudeste 0 -- -- 62
2020-11-18 10:00:00 15.6 13 Sudeste 24 Sudeste 0 -- -- 76
2020-11-18 09:00:00 12.8 14 Sudeste 24 Este 0 -- -- 84
2020-11-18 08:00:00 11.7 15 Sudeste 20 Sudeste 0 -- -- 89
2020-11-18 07:00:00 10.7 0 Calma 10 Este 0 -- -- 94
2020-11-18 06:00:00 11.4 8 Sudeste 11 Este 0 -- -- 90
2020-11-18 05:00:00 10.9 5 Sudeste 9 Este 0 -- -- 92
2020-11-18 04:00:00 11.9 5 Este 9 Este 0 -- -- 90
2020-11-18 03:00:00 12.5 5 Este 11 Sudeste 0 -- -- 91
2020-11-18 02:00:00 14.1 10 Sudeste 16 Sudeste 0 -- -- 89
2020-11-18 01:00:00 14.9 13 Sudeste 18 Sudeste 0 -- -- 87
2020-11-18 00:00:00 14.6 15 Sudeste 18 Este 0 -- -- 90
2020-11-17 23:00:00 14.2 6 Sudeste 13 Sudeste 0 -- -- 91
2020-11-17 22:00:00 14.4 5 Este 9 Este 0 -- -- 91
2020-11-17 21:00:00 14.5 5 Este 8 Este 0 -- -- 88
2020-11-17 20:00:00 15.6 2 Este 7 Este 0 -- -- 83
2020-11-17 19:00:00 17.6 4 Este 6 Este 0 -- -- 77
2020-11-17 18:00:00 21.1 0 Calma 10 Noroeste 0 -- -- 67
2020-11-17 17:00:00 23.1 5 Noroeste 12 Noroeste 0 -- -- 58
2020-11-17 16:00:00 23.7 3 Norte 10 Noroeste 0 -- -- 57
2020-11-17 15:00:00 23.2 5 Norte 12 Norte 0 -- -- 61
2020-11-17 14:00:00 23 8 Norte 12 Noroeste 0 -- -- 62
2020-11-17 13:00:00 22.1 4 Norte 10 Noroeste 0 -- -- 66
2020-11-17 12:00:00 20.9 5 Este 10 Este 0 -- -- 68
2020-11-17 11:00:00 17.1 2 Noroeste 5 Noroeste 0 -- -- 86
2020-11-17 10:00:00 15.5 2 Oeste 5 Este 0 -- -- 94
2020-11-17 09:00:00 13 0 Calma 9 Este 0 -- -- 97
2020-11-17 08:00:00 11.7 0 Calma 7 Este 0 -- -- 98
2020-11-17 07:00:00 11.6 4 Este 11 Este 0 -- -- 97
2020-11-17 06:00:00 11.9 0 Calma 12 Sudeste 0 -- -- 96
2020-11-17 05:00:00 11.9 5 Sudeste 11 Sudeste 0 -- -- 97
2020-11-17 04:00:00 12.6 8 Sudeste 12 Sudeste 0 -- -- 95
2020-11-17 03:00:00 13 5 Sudeste 14 Sudeste 0 -- -- 94
2020-11-17 02:00:00 13.4 10 Sudeste 15 Sudeste 0 -- -- 95
2020-11-17 01:00:00 13.8 11 Sudeste 14 Sudeste 0 -- -- 95
2020-11-17 00:00:00 13.9 5 Este 8 Este 0 -- -- 94
2020-11-16 23:00:00 14.1 6 Este 9 Este 0 -- -- 94
2020-11-16 22:00:00 14.3 4 Sudeste 9 Este 0 -- -- 93
2020-11-16 21:00:00 14.1 7 Este 8 Este 0 -- -- 92
2020-11-16 20:00:00 15.4 6 Sudeste 9 Sudeste 0 -- -- 88
2020-11-16 19:00:00 17.2 0 Calma 6 Sur 0 -- -- 81
2020-11-16 18:00:00 20.1 3 Sudoeste 8 Oeste 0 -- -- 75
2020-11-16 17:00:00 21 5 Noroeste 15 Oeste 0 -- -- 69
2020-11-16 16:00:00 21.7 8 Oeste 14 Oeste 0 -- -- 69
2020-11-16 15:00:00 21.4 7 Oeste 14 Oeste 0 -- -- 72
2020-11-16 14:00:00 21 3 Oeste 12 Oeste 0 -- -- 71
2020-11-16 13:00:00 20.2 5 Oeste 9 Oeste 0 -- -- 74
2020-11-16 12:00:00 18.7 3 Sudoeste 7 Oeste 0 -- -- 80
2020-11-16 11:00:00 17.4 0 Calma 9 Norte 0 -- -- 85
2020-11-16 10:00:00 16.9 2 Este 13 Sudeste 0 -- -- 84
2020-11-16 09:00:00 14.5 10 Sudeste 16 Sudeste 0 -- -- 92
2020-11-16 08:00:00 14 10 Sudeste 17 Sudeste 0 -- -- 90
2020-11-16 07:00:00 14.3 14 Sudeste 17 Sudeste 0 -- -- 88
2020-11-16 06:00:00 13.5 9 Sudeste 12 Sudeste 0 -- -- 91
2020-11-16 05:00:00 13.6 4 Sudeste 10 Sur 0 -- -- 90
2020-11-16 04:00:00 14.2 0 Calma 6 Sudeste 0 -- -- 88
2020-11-16 03:00:00 15.8 3 Noroeste 20 Sudeste 0 -- -- 85
2020-11-16 02:00:00 16.4 16 Sudeste 22 Sudeste 0 -- -- 83
2020-11-16 01:00:00 16.7 14 Sudeste 21 Sudeste 0 -- -- 81
2020-11-16 00:00:00 17.2 13 Sudeste 22 Sudeste 0 -- -- 80
2020-11-15 23:00:00 17.3 15 Sudeste 20 Sudeste 0 -- -- 82
2020-11-15 22:00:00 16.9 13 Sudeste 15 Sudeste 0 -- -- 87
2020-11-15 21:00:00 17.7 4 Este 10 Sudeste 0 -- -- 84
2020-11-15 20:00:00 17.8 5 Este 8 Sudeste 0 -- -- 84
2020-11-15 19:00:00 19.6 2 Este 6 Este 0 -- -- 76
2020-11-15 18:00:00 21.9 0 Calma 13 Oeste 0 -- -- 67
2020-11-15 17:00:00 23.5 9 Oeste 15 Oeste 0 -- -- 59
2020-11-15 16:00:00 25 8 Oeste 15 Oeste 0 -- -- 53
2020-11-15 15:00:00 24.9 8 Sudoeste 13 Oeste 0 -- -- 51
2020-11-15 14:00:00 24.5 5 Sudoeste 14 Este 0 -- -- 52
2020-11-15 13:00:00 23 6 Sudeste 14 Sudeste 0 -- -- 58
2020-11-15 12:00:00 21.3 7 Este 14 Este 0 -- -- 64
2020-11-15 11:00:00 18.7 8 Sudeste 13 Sudeste 0 -- -- 79
2020-11-15 10:00:00 15.7 2 Este 12 Sudeste 0 -- -- 92
2020-11-15 09:00:00 13.3 7 Sudeste 11 Sudeste 0 -- -- 97
2020-11-15 08:00:00 12.4 0 Calma 8 Este 0 -- -- 96
2020-11-15 07:00:00 12.4 5 Este 7 Este 0.2 -- -- 97
2020-11-15 06:00:00 12.5 2 Sudeste 8 Sudeste 0 -- -- 96
2020-11-15 05:00:00 13.5 9 Sudeste 14 Sudeste 0 -- -- 96
2020-11-15 04:00:00 13.5 4 Sudeste 12 Este 0 -- -- 96
2020-11-15 03:00:00 14 8 Sudeste 11 Este 0 -- -- 95
2020-11-15 02:00:00 14.8 9 Sudeste 11 Sudeste 0 -- -- 95
2020-11-15 01:00:00 15.5 7 Sudeste 9 Sudeste 0 -- -- 95
2020-11-15 00:00:00 15.7 2 Sur 10 Sudeste 0 -- -- 95
2020-11-14 23:00:00 15.4 6 Sudeste 10 Este 0 -- -- 96
2020-11-14 22:00:00 14.7 3 Sur 4 Sudeste 0 -- -- 95
2020-11-14 21:00:00 14.9 3 Sudeste 5 Sudeste 0 -- -- 93
2020-11-14 20:00:00 16.3 0 Calma 6 Sudoeste 0 -- -- 92
2020-11-14 19:00:00 16.9 3 Sudoeste 7 Sudoeste 0.2 -- -- 91
2020-11-14 18:00:00 17.5 4 Sudoeste 10 Sur 0 -- -- 86
2020-11-14 17:00:00 17.5 6 Sur 15 Sur 0 -- -- 85
2020-11-14 16:00:00 17.5 8 Sudeste 15 Sudeste 0 -- -- 86
2020-11-14 15:00:00 16.7 11 Sudeste 19 Sudeste 0.2 -- -- 89
2020-11-14 14:00:00 16.8 12 Sudeste 21 Sudeste 0 -- -- 86
2020-11-14 13:00:00 16.3 6 Sudeste 18 Sur 0.4 -- -- 89
2020-11-14 12:00:00 16.9 11 Sur 18 Sudeste 0 -- -- 82
2020-11-14 11:00:00 16.3 8 Sudeste 14 Sudeste 0 -- -- 82
2020-11-14 10:00:00 15.6 3 Sudeste 12 Sudeste 0 -- -- 88
2020-11-14 09:00:00 14.6 12 Sudeste 17 Sudeste 0.2 -- -- 91
2020-11-14 08:00:00 14.8 7 Sur 15 Sur 0 -- -- 89
2020-11-14 07:00:00 15 6 Sudeste 16 Sur 0 -- -- 87
2020-11-14 06:00:00 15.2 4 Sudeste 7 Sudeste 0 -- -- 86
2020-11-14 05:00:00 15.1 0 Calma 12 Oeste 0 -- -- 87
2020-11-14 04:00:00 15.6 3 Oeste 14 Sudeste 0 -- -- 85
2020-11-14 03:00:00 15.9 4 Sur 12 Este 0 -- -- 82
2020-11-14 02:00:00 16 9 Sudeste 17 Sudeste 0 -- -- 82
2020-11-14 01:00:00 16.4 11 Sudeste 18 Sudeste 0 -- -- 79
2020-11-14 00:00:00 16.7 10 Sudeste 16 Sudeste 0 -- -- 78
2020-11-13 23:00:00 16.5 9 Sudeste 14 Sudeste 0 -- -- 79
2020-11-13 22:00:00 16.7 9 Sudeste 11 Sudeste 0 -- -- 80
2020-11-13 21:00:00 17.3 8 Sudeste 15 Sudeste 0 -- -- 77
2020-11-13 20:00:00 17.5 8 Sudeste 15 Sudeste 0 -- -- 75
2020-11-13 19:00:00 18.5 3 Sudeste 6 Sur 0 -- -- 70
2020-11-13 18:00:00 19.5 3 Noroeste 6 Sudoeste 0 -- -- 64
2020-11-13 17:00:00 21.6 5 Sudoeste 13 Sur 0 -- -- 54
2020-11-13 16:00:00 22.7 6 Sudoeste 13 Oeste 0 -- -- 49
2020-11-13 15:00:00 22.8 4 Sudoeste 12 Sudeste 0 -- -- 46
2020-11-13 14:00:00 22 6 Sudeste 16 Sudeste 0 -- -- 52
2020-11-13 13:00:00 20.1 6 Sudeste 19 Sudeste 0 -- -- 60
2020-11-13 12:00:00 19.2 10 Sudeste 19 Sudeste 0 -- -- 63
2020-11-13 11:00:00 18.3 9 Sudeste 16 Sudeste 0 -- -- 64
2020-11-13 10:00:00 15.5 8 Sudeste 15 Sudeste 0 -- -- 74
2020-11-13 09:00:00 10.5 4 Este 9 Sudeste 0 -- -- 92
2020-11-13 08:00:00 8.8 4 Este 8 Este 0 -- -- 92
2020-11-13 07:00:00 9.7 5 Este 8 Este 0 -- -- 90
2020-11-13 06:00:00 11 3 Este 15 Sudeste 0 -- -- 86
2020-11-13 05:00:00 12.3 12 Sudeste 18 Sudeste 0 -- -- 81
2020-11-13 04:00:00 12.2 13 Sudeste 21 Sudeste 0 -- -- 81
2020-11-13 03:00:00 12.2 15 Sudeste 22 Sudeste 0 -- -- 81
2020-11-13 02:00:00 11.9 13 Sudeste 20 Sudeste 0 -- -- 84
2020-11-13 01:00:00 12 14 Sudeste 19 Sudeste 0 -- -- 84
2020-11-13 00:00:00 11.3 11 Sudeste 15 Sudeste 0 -- -- 87
2020-11-12 23:00:00 11.6 9 Sudeste 12 Sudeste 0 -- -- 82
2020-11-12 22:00:00 13 9 Sudeste 13 Este 0 -- -- 80
2020-11-12 21:00:00 14.3 4 Este 10 Sudeste 0 -- -- 77
2020-11-12 20:00:00 15.7 6 Sudeste 15 Sudeste 0 -- -- 73
2020-11-12 19:00:00 16.3 7 Sudeste 16 Sur 0 -- -- 70
2020-11-12 18:00:00 17.5 8 Sur 27 Sur 0 -- -- 63
2020-11-12 17:00:00 19.9 17 Sur 26 Sur 0 -- -- 53
2020-11-12 16:00:00 20.7 5 Sudeste 17 Norte 0 -- -- 46
2020-11-12 15:00:00 19.3 7 Noroeste 17 Noroeste 0 -- -- 58
2020-11-12 14:00:00 18.9 8 Norte 18 Norte 0 -- -- 57
2020-11-12 13:00:00 18.6 8 Norte 17 Norte 0 -- -- 62
2020-11-12 12:00:00 17.7 6 Nordeste 13 Este 0 -- -- 66
2020-11-12 11:00:00 15.6 12 Sudeste 20 Este 0 -- -- 69
2020-11-12 10:00:00 13.3 8 Este 18 Este 0 -- -- 79
2020-11-12 09:00:00 11.4 13 Sudeste 18 Sudeste 0 -- -- 86
2020-11-12 08:00:00 10.3 11 Sudeste 19 Sudeste 0 -- -- 90
2020-11-12 07:00:00 9.5 6 Sudeste 14 Sudeste 0 -- -- 94
2020-11-12 06:00:00 9.2 3 Este 9 Este 0 -- -- 93
2020-11-12 05:00:00 9.5 8 Sudeste 12 Sudeste 0 -- -- 92
2020-11-12 04:00:00 10.2 7 Sudeste 10 Sudeste 0 -- -- 89
2020-11-12 03:00:00 10.4 3 Este 8 Sudeste 0 -- -- 89
2020-11-12 02:00:00 11.6 8 Sudeste 13 Este 0 -- -- 84
2020-11-12 01:00:00 12.5 8 Sudeste 18 Sudeste 0 -- -- 83
2020-11-12 00:00:00 12.2 9 Sudeste 17 Sudeste 0 -- -- 85
2020-11-11 23:00:00 12.7 13 Sudeste 18 Sudeste 0 -- -- 86
2020-11-11 22:00:00 12.6 12 Sudeste 15 Sudeste 0 -- -- 88
2020-11-11 21:00:00 12.6 6 Sudeste 10 Sudeste 0 -- -- 86
2020-11-11 20:00:00 14.5 4 Sudeste 12 Sur 0 -- -- 79
2020-11-11 19:00:00 16.2 5 Sudeste 12 Sur 0 -- -- 72
2020-11-11 18:00:00 18.7 0 Calma 12 Noroeste 0 -- -- 63
2020-11-11 17:00:00 20.7 7 Noroeste 14 Noroeste 0 -- -- 56
2020-11-11 16:00:00 21.9 5 Sudoeste 13 Este 0 -- -- 46
2020-11-11 15:00:00 21.4 6 Sudeste 14 Sudeste 0 -- -- 48
2020-11-11 14:00:00 20.9 8 Sur 15 Sur 0 -- -- 50
2020-11-11 13:00:00 20.3 7 Sudeste 15 Sudeste 0 -- -- 53
2020-11-11 12:00:00 19 5 Sudeste 16 Sudeste 0 -- -- 58
2020-11-11 11:00:00 17.1 2 Este 12 Sudeste 0 -- -- 64
2020-11-11 10:00:00 14.7 7 Sudeste 13 Sudeste 0 -- -- 73
2020-11-11 09:00:00 10.6 3 Este 7 Este 0 -- -- 94
2020-11-11 08:00:00 8.8 2 Sur 8 Este 0 -- -- 95
2020-11-11 07:00:00 9.8 4 Este 12 Este 0 -- -- 92
2020-11-11 06:00:00 9.6 5 Este 12 Este 0 -- -- 93
2020-11-11 05:00:00 10.1 7 Este 11 Este 0 -- -- 93
2020-11-11 04:00:00 10 6 Este 10 Nordeste 0 -- -- 92
2020-11-11 03:00:00 10.6 5 Nordeste 8 Nordeste 0 -- -- 91
2020-11-11 02:00:00 11.8 3 Este 16 Sudeste 0 -- -- 88
2020-11-11 01:00:00 13 12 Sudeste 19 Sudeste 0 -- -- 85
2020-11-11 00:00:00 13.2 14 Sudeste 23 Sudeste 0 -- -- 84
2020-11-10 23:00:00 13.8 16 Sudeste 23 Sudeste 0 -- -- 81
2020-11-10 22:00:00 14 13 Sudeste 19 Este 0 -- -- 76
2020-11-10 21:00:00 14.5 12 Este 15 Este 0 -- -- 74
2020-11-10 20:00:00 15.1 12 Este 15 Nordeste 0 -- -- 69
2020-11-10 19:00:00 15.1 5 Este 9 Nordeste 0 -- -- 75
2020-11-10 18:00:00 18 5 Nordeste 16 Norte 0 -- -- 64
2020-11-10 17:00:00 19.8 8 Norte 15 Nordeste 0 -- -- 55
2020-11-10 16:00:00 20.3 6 Norte 13 Noroeste 0 -- -- 60
2020-11-10 15:00:00 20.5 6 Norte 12 Norte 0 -- -- 61
2020-11-10 14:00:00 19.2 5 Norte 13 Nordeste 0 -- -- 66
2020-11-10 13:00:00 17.1 8 Norte 14 Norte 0 -- -- 77
2020-11-10 12:00:00 14.6 9 Norte 14 Norte 0 -- -- 88
2020-11-10 11:00:00 12.9 9 Norte 13 Norte 0 -- -- 92
2020-11-10 10:00:00 11.8 0 Calma 5 Noroeste 0 -- -- 96
2020-11-10 09:00:00 9.4 0 Calma 4 Este 0 -- -- 99
2020-11-10 08:00:00 7.2 0 Calma 7 Sudeste 0.2 -- -- 97
2020-11-10 07:00:00 7.1 2 Sudeste 8 Este 0 -- -- 97
2020-11-10 06:00:00 7.7 0 Calma 7 Este 0 -- -- 96
2020-11-10 05:00:00 8.5 5 Sudeste 8 Sudeste 0 -- -- 97
2020-11-10 04:00:00 9 4 Este 8 Sudeste 0 -- -- 96
2020-11-10 03:00:00 9.6 4 Este 9 Sudeste 0 -- -- 96
2020-11-10 02:00:00 10 2 Este 9 Sudeste 0 -- -- 96
2020-11-10 01:00:00 10.1 4 Este 8 Sudeste 0 -- -- 96
2020-11-10 00:00:00 10.5 4 Este 9 Este 0 -- -- 95
2020-11-09 23:00:00 10.7 5 Este 8 Este 0 -- -- 94
2020-11-09 22:00:00 11.3 3 Este 8 Este 0 -- -- 94
2020-11-09 21:00:00 11.3 5 Este 7 Este 0 -- -- 92
2020-11-09 20:00:00 12.6 6 Este 8 Este 0 -- -- 89
2020-11-09 19:00:00 14.5 0 Calma 4 Oeste 0 -- -- 82
2020-11-09 18:00:00 17.5 3 Oeste 6 Oeste 0 -- -- 71
2020-11-09 17:00:00 18.5 4 Noroeste 8 Noroeste 0 -- -- 70
2020-11-09 16:00:00 17.7 5 Oeste 15 Noroeste 0 -- -- 72
2020-11-09 15:00:00 18.6 5 Noroeste 13 Oeste 0 -- -- 69
2020-11-09 14:00:00 19.2 4 Sur 11 Sudoeste 0 -- -- 65
2020-11-09 13:00:00 17 4 Sur 9 Sur 0 -- -- 75
2020-11-09 12:00:00 15.8 5 Sur 13 Sudeste 0 -- -- 79
2020-11-09 11:00:00 14.8 10 Sudeste 14 Sur 0 -- -- 81
2020-11-09 10:00:00 14.2 4 Sudeste 10 Este 0 -- -- 90
2020-11-09 09:00:00 12.4 5 Noroeste 11 Oeste 0 -- -- 96
2020-11-09 08:00:00 11.4 0 Calma 5 Este 0 -- -- 96
2020-11-09 07:00:00 10.7 2 Este 12 Sudeste 0 -- -- 96
2020-11-09 06:00:00 10 0 Calma 8 Sudeste 0 -- -- 95
2020-11-09 05:00:00 10.3 0 Calma 4 Este 0 -- -- 94
2020-11-09 04:00:00 11.2 5 Sudeste 13 Este 0 -- -- 92
2020-11-09 03:00:00 11.6 10 Sudeste 12 Este 0 -- -- 93
2020-11-09 02:00:00 11.6 0 Calma 8 Sudeste 0 -- -- 90
2020-11-09 01:00:00 12.6 6 Sudeste 12 Sudeste 0 -- -- 87
2020-11-09 00:00:00 13.8 9 Sur 13 Sur 0 -- -- 84
2020-11-08 23:00:00 13.7 9 Sudeste 14 Sudeste 0 -- -- 87
2020-11-08 22:00:00 13.4 9 Sudeste 12 Sudeste 0 -- -- 90
2020-11-08 21:00:00 14.1 6 Sudeste 9 Sudeste 0 -- -- 88
2020-11-08 20:00:00 13.8 4 Sudeste 7 Este 0 -- -- 88
2020-11-08 19:00:00 15.3 6 Este 8 Este 0 -- -- 85
2020-11-08 18:00:00 18.6 0 Calma 12 Oeste 0 -- -- 70
2020-11-08 17:00:00 19.9 6 Noroeste 14 Oeste 0 -- -- 62
2020-11-08 16:00:00 20.7 10 Oeste 15 Oeste 0 -- -- 59
2020-11-08 15:00:00 20.7 6 Oeste 18 Oeste 0 -- -- 58
2020-11-08 14:00:00 20.9 11 Sur 21 Sudoeste 0 -- -- 52
2020-11-08 13:00:00 20.1 6 Sur 18 Sur 0 -- -- 60
2020-11-08 12:00:00 19.4 11 Sudeste 21 Sudeste 0 -- -- 62
2020-11-08 11:00:00 17.7 14 Sudeste 21 Sudeste 0 -- -- 66
2020-11-08 10:00:00 15.4 14 Sudeste 21 Este 0 -- -- 73
2020-11-08 09:00:00 11.9 11 Sudeste 20 Sudeste -- -- -- 85
2020-11-08 08:00:00 10.7 16 Sudeste 20 Sudeste -- -- -- 89
2020-11-08 07:00:00 10.8 15 Sudeste 19 Sudeste -- -- -- 89
2020-11-08 06:00:00 11.7 12 Sudeste 15 Sudeste -- -- -- 88
2020-11-08 05:00:00 11.5 10 Sudeste 17 Este -- -- -- 92
2020-11-08 04:00:00 11.3 2 Sudeste 14 Sudeste -- -- -- 92
2020-11-08 03:00:00 11.7 10 Sudeste 14 Sudeste -- -- -- 93
2020-11-08 02:00:00 11.6 5 Este 10 Este -- -- -- 93
2020-11-08 01:00:00 11.4 4 Este 11 Sudeste -- -- -- 94
2020-11-08 00:00:00 11.9 3 Nordeste 14 Este -- -- -- 92
2020-11-07 23:00:00 13.1 0 Calma 12 Sudeste -- -- -- 91
2020-11-07 22:00:00 13.1 8 Este 12 Este -- -- -- 90
2020-11-07 21:00:00 13.6 5 Este 12 Este -- -- -- 89
2020-11-07 20:00:00 13.8 9 Este 12 Sudeste -- -- -- 88
2020-11-07 19:00:00 15.3 4 Este 7 Este -- -- -- 83
2020-11-07 18:00:00 17.9 3 Oeste 14 Oeste -- -- -- 71
2020-11-07 17:00:00 18.9 8 Oeste 21 Oeste -- -- -- 66
2020-11-07 16:00:00 19.2 13 Oeste 25 Oeste -- -- -- 65
2020-11-07 15:00:00 19.6 15 Oeste 26 Sudoeste -- -- -- 66
2020-11-07 14:00:00 19.7 16 Oeste 27 Oeste -- -- -- 66
2020-11-07 13:00:00 17.1 17 Sudoeste 32 Sudoeste -- -- -- 71
2020-11-07 12:00:00 17.6 17 Sudoeste 29 Sur -- -- -- 75
2020-11-07 11:00:00 16 18 Sudoeste 34 Sudoeste -- -- -- 81
2020-11-07 10:00:00 15.2 18 Sur 28 Sur -- -- -- 86
2020-11-07 09:00:00 13.7 15 Sur 27 Sur -- -- -- 92
2020-11-07 08:00:00 13.4 17 Sur 38 Sur -- -- -- 93
2020-11-07 07:00:00 13.8 5 Sudoeste 25 Sudeste -- -- -- 95
2020-11-07 06:00:00 13.6 13 Sudeste 24 Sudeste -- -- -- 95
2020-11-07 05:00:00 12.7 6 Sudeste 21 Sudeste -- -- -- 95
2020-11-07 04:00:00 11.9 6 Sudoeste 48 Oeste -- -- -- 94
2020-11-07 03:00:00 15.2 13 Sur 53 Oeste -- -- -- 82
2020-11-07 02:00:00 15.6 14 Sudeste 27 Sudeste -- -- -- 78
2020-11-07 01:00:00 15.8 16 Sudeste 33 Sudeste -- -- -- 78
2020-11-07 00:00:00 15.6 17 Este 35 Sudeste -- -- -- 81
2020-11-06 23:00:00 15.5 16 Sudeste 27 Sudeste -- -- -- 82
2020-11-06 22:00:00 16.2 6 Sudeste 17 Sur -- -- -- 87
2020-11-06 21:00:00 17.6 6 Sur 15 Sudoeste -- -- -- 81
2020-11-06 20:00:00 18.2 6 Oeste 13 Noroeste -- -- -- 74
2020-11-06 19:00:00 18.5 5 Norte 9 Nordeste -- -- -- 66
2020-11-06 18:00:00 20 0 Calma 12 Oeste -- -- -- 64
2020-11-06 17:00:00 21.4 5 Oeste 10 Oeste -- -- -- 61
2020-11-06 16:00:00 22.1 5 Oeste 13 Oeste -- -- -- 58
2020-11-06 15:00:00 22.9 8 Oeste 15 Sur -- -- -- 54
2020-11-06 14:00:00 24.4 13 Sur 40 Sudeste -- -- -- 37
2020-11-06 13:00:00 24.2 10 Sudeste 24 Sudeste -- -- -- 42
2020-11-06 12:00:00 23.8 13 Sudeste -- -- -- -- -- 41
2020-11-06 11:00:00 22.6 21 Sudeste 34 Sudeste -- -- -- 41
2020-11-06 10:00:00 21.3 19 Sudeste 32 Este -- -- -- 43
2020-11-06 09:00:00 20.2 20 Sudeste 33 Sudeste -- -- -- 44
2020-11-06 08:00:00 17.5 12 Este 18 Este -- -- -- 54
2020-11-06 07:00:00 11.8 4 Sudeste 7 Nordeste -- -- -- 86
2020-11-06 06:00:00 12.2 2 Norte 10 Sudeste -- -- -- 82
2020-11-06 05:00:00 12.1 5 Este 13 Sudeste -- -- -- 86
2020-11-06 04:00:00 12.7 4 Nordeste 9 Nordeste -- -- -- 83
2020-11-06 03:00:00 13.6 6 Nordeste 12 Norte -- -- -- 80
2020-11-06 02:00:00 14.5 0 Calma 12 Sudeste -- -- -- 73
2020-11-06 01:00:00 15.2 10 Este 16 Sudeste -- -- -- 69
2020-11-06 00:00:00 14.4 5 Sudeste 12 Sudeste -- -- -- 71
2020-11-05 23:00:00 13.6 8 Sudeste 13 Sudeste -- -- -- 78
2020-11-05 22:00:00 14.4 9 Sudeste 17 Sudeste -- -- -- 75
2020-11-05 21:00:00 15.6 10 Este 15 Este -- -- -- 72
2020-11-05 20:00:00 15.3 11 Este 15 Este -- -- -- 78
2020-11-05 19:00:00 15.5 10 Este 23 Este -- -- -- 80
2020-11-05 18:00:00 15.9 13 Este 21 Este -- -- -- 80
2020-11-05 17:00:00 16.6 6 Este 17 Este -- -- -- 77
2020-11-05 16:00:00 15.9 11 Nordeste 16 Nordeste -- -- -- 79
2020-11-05 15:00:00 14.7 5 Norte 13 Norte -- -- -- 85
2020-11-05 14:00:00 14.4 9 Norte 24 Oeste -- -- -- 89
2020-11-05 13:00:00 14.9 13 Noroeste 33 Oeste -- -- -- 89
2020-11-05 12:00:00 16 6 Noroeste 11 Norte -- -- -- 84
2020-11-05 11:00:00 14.8 5 Norte 14 Norte -- -- -- 90
2020-11-05 10:00:00 14.4 5 Norte 12 Norte -- -- -- 93
2020-11-05 09:00:00 13.8 6 Norte 10 Nordeste -- -- -- 95
2020-11-05 08:00:00 14.2 2 Oeste 19 Sudoeste -- -- -- 89
2020-11-05 07:00:00 16.5 5 Este 23 Sudeste -- -- -- 68
2020-11-05 06:00:00 16.9 17 Sudeste 40 Sudeste -- -- -- 65
2020-11-05 05:00:00 16.5 21 Sudeste 35 Sudeste -- -- -- 64
2020-11-05 04:00:00 14.8 15 Este 27 Sudeste -- -- -- 81
2020-11-05 03:00:00 13.7 10 Este 25 Nordeste -- -- -- 89
2020-11-05 02:00:00 13.2 8 Este 12 Nordeste -- -- -- 93
2020-11-05 01:00:00 13.4 6 Nordeste 11 Norte -- -- -- 91
2020-11-05 00:00:00 14.7 7 Nordeste 19 Este -- -- -- 79
2020-11-04 23:00:00 13.3 5 Este 11 Este -- -- -- 88
2020-11-04 22:00:00 13.3 5 Este 13 Este -- -- -- 89
2020-11-04 21:00:00 12.9 6 Este 9 Este -- -- -- 91
2020-11-04 20:00:00 13.5 7 Este 10 Este -- -- -- 90
2020-11-04 19:00:00 14.3 5 Este 21 Sudeste -- -- -- 91
2020-11-04 18:00:00 15.5 10 Sur 25 Sudeste -- -- -- 85
2020-11-04 17:00:00 17.1 5 Sudeste 19 Sudeste -- -- -- 75
2020-11-04 16:00:00 17.9 8 Este 18 Este -- -- -- 75
2020-11-04 15:00:00 17.3 5 Este 9 Sudeste -- -- -- 82
2020-11-04 14:00:00 16.5 6 Este 11 Este -- -- -- 84
2020-11-04 13:00:00 15.3 3 Este 19 Este -- -- -- 87
2020-11-04 12:00:00 15.9 8 Este 16 Este -- -- -- 84
2020-11-04 11:00:00 14.5 9 Este 16 Este -- -- -- 91
2020-11-04 10:00:00 14.3 3 Sur 11 Este -- -- -- 92
2020-11-04 09:00:00 14.1 10 Este 21 Este -- -- -- 90
2020-11-04 08:00:00 13.5 11 Sudeste 17 Este -- -- -- 92
2020-11-04 07:00:00 13.5 12 Sudeste 18 Sudeste -- -- -- 90
2020-11-04 06:00:00 13.5 10 Este 14 Este -- -- -- 91
2020-11-04 05:00:00 14.6 13 Sudeste 25 Sudeste -- -- -- 84
2020-11-04 04:00:00 15.5 8 Sudeste 18 Sur -- -- -- 74
2020-11-04 03:00:00 15.6 10 Sudeste 17 Sudeste -- -- -- 72
2020-11-04 02:00:00 15.5 6 Este 13 Sudeste -- -- -- 87
2020-11-04 01:00:00 15.2 10 Sudeste 14 Sudeste -- -- -- 86
2020-11-04 00:00:00 15.5 3 Este 6 Nordeste -- -- -- 83
2020-11-03 23:00:00 16.2 0 Calma 8 Sudeste -- -- -- 82
2020-11-03 22:00:00 16.4 3 Este 4 Este -- -- -- 84
2020-11-03 21:00:00 17.3 0 Calma 4 Sudoeste -- -- -- 80
2020-11-03 20:00:00 17.9 4 Sudoeste 4 Oeste -- -- -- 73
2020-11-03 19:00:00 19.2 0 Calma 10 Oeste -- -- -- 66
2020-11-03 18:00:00 20.5 7 Oeste 20 Oeste -- -- -- 60
2020-11-03 17:00:00 23 10 Noroeste 19 Noroeste -- -- -- 47
2020-11-03 16:00:00 24.6 9 Oeste 17 Oeste -- -- -- 40
2020-11-03 15:00:00 24.3 6 Noroeste 13 Noroeste -- -- -- 41
2020-11-03 14:00:00 23.3 7 Norte 15 Norte -- -- -- 46
2020-11-03 13:00:00 23 4 Noroeste 10 Noroeste -- -- -- 46
2020-11-03 12:00:00 21 3 Norte 10 Norte -- -- -- 52
2020-11-03 11:00:00 19.5 4 Noroeste 6 Noroeste -- -- -- 57
2020-11-03 10:00:00 16.7 3 Noroeste 9 Este -- -- -- 65
2020-11-03 09:00:00 14.5 8 Sudeste 12 Sudeste -- -- -- 66
2020-11-03 08:00:00 11 4 Este 15 Sudeste -- -- -- 77
2020-11-03 07:00:00 10.4 7 Sudeste 14 Sudeste -- -- -- 82
2020-11-03 06:00:00 10.4 2 Sudoeste 9 Este -- -- -- 87
2020-11-03 05:00:00 10.6 3 Sudeste 6 Sudeste -- -- -- 78
2020-11-03 04:00:00 12.4 4 Sur 15 Sudeste -- -- -- 72
2020-11-03 03:00:00 11.5 9 Este 16 Sudeste -- -- -- 73
2020-11-03 02:00:00 12.7 3 Sudeste 9 Este -- -- -- 70
2020-11-03 01:00:00 14.7 8 Este 17 Sudeste -- -- -- 61
2020-11-03 00:00:00 15.9 13 Sudeste 17 Sudeste -- -- -- 56
2020-11-02 23:00:00 15.2 2 Nordeste 13 Este -- -- -- 64
2020-11-02 22:00:00 16 11 Sudeste 14 Sudeste -- -- -- 62
2020-11-02 21:00:00 17.4 12 Sudeste 15 Sudeste -- -- -- 58
2020-11-02 20:00:00 18.3 4 Este 6 Sudeste -- -- -- 54
2020-11-02 19:00:00 21.1 3 Este 5 Este -- -- -- 47
2020-11-02 18:00:00 24.7 4 Norte 10 Norte -- -- -- 40
2020-11-02 17:00:00 26.6 5 Norte 12 Noroeste -- -- -- 35
2020-11-02 16:00:00 27.6 5 Norte 10 Norte -- -- -- 33
2020-11-02 15:00:00 27.4 6 Norte 12 Norte -- -- -- 36
2020-11-02 14:00:00 26.8 4 Oeste 8 Norte -- -- -- 36
2020-11-02 13:00:00 25.2 4 Noroeste 12 Norte -- -- -- 43
2020-11-02 12:00:00 23.4 5 Noroeste 8 Norte -- -- -- 48
2020-11-02 11:00:00 20.6 3 Norte 6 Norte -- -- -- 55
2020-11-02 10:00:00 17.4 2 Norte 5 Nordeste -- -- -- 63
2020-11-02 09:00:00 14.5 2 Nordeste 9 Este -- -- -- 73
2020-11-02 08:00:00 11.6 4 Este 9 Este -- -- -- 80
2020-11-02 07:00:00 11.6 2 Nordeste 14 Sudeste -- -- -- 80
2020-11-02 06:00:00 12.1 12 Sudeste 14 Sudeste -- -- -- 80
2020-11-02 05:00:00 10.9 3 Sudeste 6 Este -- -- -- 84
2020-11-02 04:00:00 12.4 2 Este 7 Este -- -- -- 78
2020-11-02 03:00:00 13.2 4 Este 10 Este -- -- -- 74
2020-11-02 02:00:00 14.5 4 Sudeste 16 Sudeste -- -- -- 70
2020-11-02 01:00:00 15.6 10 Sudeste 16 Sudeste -- -- -- 68
2020-11-02 00:00:00 16.1 13 Sudeste 16 Sudeste -- -- -- 67
2020-11-01 23:00:00 14.8 4 Este 8 Sudeste -- -- -- 73
2020-11-01 22:00:00 15 5 Sudeste 9 Sudeste -- -- -- 73
2020-11-01 21:00:00 15.9 4 Este 9 Este -- -- -- 69
2020-11-01 20:00:00 17 8 Sudeste 9 Sudeste -- -- -- 64
2020-11-01 19:00:00 20.3 4 Este 5 Este -- -- -- 54
2020-11-01 18:00:00 24.8 3 Norte 8 Norte -- -- -- 44
2020-11-01 17:00:00 26.1 4 Noroeste 11 Noroeste -- -- -- 39
2020-11-01 16:00:00 26.1 5 Noroeste 12 Noroeste -- -- -- 39
2020-11-01 15:00:00 26 7 Noroeste 11 Noroeste -- -- -- 41
2020-11-01 14:00:00 24.9 3 Oeste 10 Norte -- -- -- 45
2020-11-01 13:00:00 23.8 5 Oeste 9 Oeste -- -- -- 48
2020-11-01 12:00:00 21.3 6 Noroeste 8 Noroeste -- -- -- 55
2020-11-01 11:00:00 19.1 2 Norte 6 Noroeste -- -- -- 60
2020-11-01 10:00:00 16.5 2 Noroeste 4 Oeste -- -- -- 70
2020-11-01 09:00:00 13.4 2 Este 5 Este -- -- -- 83
2020-11-01 08:00:00 10.3 0 Calma 6 Sudeste -- -- -- 87
2020-11-01 07:00:00 10.9 2 Sudeste 10 Sudeste -- -- -- 85
2020-11-01 06:00:00 11.1 2 Sur 8 Sudeste -- -- -- 88
2020-11-01 05:00:00 10.9 7 Este 10 Sudeste -- -- -- 88
2020-11-01 04:00:00 11.5 3 Sudeste 9 Este -- -- -- 85
2020-11-01 03:00:00 11.9 4 Este 9 Este -- -- -- 83
2020-11-01 02:00:00 12.4 2 Sudeste 10 Sudeste -- -- -- 82
2020-11-01 01:00:00 12.3 4 Este 10 Este -- -- -- 83
2020-11-01 00:00:00 13.6 8 Sudeste 12 Sudeste -- -- -- 78
2020-10-31 23:00:00 13.6 8 Sudeste 12 Sudeste -- -- -- 78
2020-10-31 22:00:00 14.2 2 Sudeste 8 Sudeste -- -- -- 76
2020-10-31 21:00:00 14.6 2 Sur 7 Sudeste -- -- -- 75
2020-10-31 20:00:00 15.9 3 Sudeste 6 Este -- -- -- 71
2020-10-31 19:00:00 19.2 0 Calma 4 Sudeste -- -- -- 59
2020-10-31 18:00:00 24.7 0 Calma 10 Oeste -- -- -- 44
2020-10-31 17:00:00 25.5 7 Oeste 18 Oeste -- -- -- 37
2020-10-31 16:00:00 25.8 5 Noroeste 9 Oeste -- -- -- 38
2020-10-31 15:00:00 25.5 6 Norte 15 Noroeste -- -- -- 39
2020-10-31 14:00:00 24.9 5 Norte 11 Norte -- -- -- 40
2020-10-31 13:00:00 23.8 5 Norte 10 Norte -- -- -- 44
2020-10-31 12:00:00 22.4 6 Oeste 12 Oeste -- -- -- 50
2020-10-31 11:00:00 20.8 4 Oeste 8 Sudeste -- -- -- 51
2020-10-31 10:00:00 18.6 3 Nordeste 8 Sudeste -- -- -- 62
2020-10-31 09:00:00 14.1 3 Noroeste 12 Este -- -- -- 78
2020-10-31 08:00:00 11.5 5 Sudeste 12 Sudeste -- -- -- 85
2020-10-31 07:00:00 12.3 6 Sudeste 9 Sudeste -- -- -- 81
2020-10-31 06:00:00 14.5 3 Sur 19 Sudeste -- -- -- 73
2020-10-31 05:00:00 14.8 15 Sudeste 21 Sudeste -- -- -- 69
2020-10-31 04:00:00 15.1 16 Sudeste 18 Sudeste -- -- -- 67
2020-10-31 03:00:00 15.5 13 Sudeste 20 Este -- -- -- 66
2020-10-31 02:00:00 15.8 16 Sudeste 21 Sudeste -- -- -- 66
2020-10-31 01:00:00 15.6 13 Sudeste 21 Sudeste -- -- -- 66
2020-10-31 00:00:00 16 14 Sudeste 20 Sudeste -- -- -- 63
2020-10-30 23:00:00 16.7 14 Sudeste 21 Sudeste -- -- -- 62
2020-10-30 22:00:00 17.1 16 Sudeste 21 Sudeste -- -- -- 59
2020-10-30 21:00:00 17.3 14 Sudeste 18 Sudeste -- -- -- 57
2020-10-30 20:00:00 17.7 7 Sudeste 15 Sur -- -- -- 57
2020-10-30 19:00:00 18.7 5 Sur 9 Sur -- -- -- 58
2020-10-30 18:00:00 23.4 0 Calma 7 Noroeste -- -- -- 46
2020-10-30 17:00:00 24.4 4 Norte 11 Noroeste -- -- -- 45
2020-10-30 16:00:00 25 4 Norte 13 Norte -- -- -- 41
2020-10-30 15:00:00 26 9 Noroeste 15 Norte -- -- -- 40
2020-10-30 14:00:00 24.7 4 Norte 10 Norte -- -- -- 42
2020-10-30 13:00:00 23.9 6 Norte 9 Norte -- -- -- 45
2020-10-30 12:00:00 22.1 4 Norte 8 Noroeste -- -- -- 50
2020-10-30 11:00:00 19.7 3 Noroeste 5 Noroeste -- -- -- 54
2020-10-30 10:00:00 17.3 3 Noroeste 10 Sudeste -- -- -- 65
2020-10-30 09:00:00 14.3 6 Este 10 Este -- -- -- 74
2020-10-30 08:00:00 11.3 3 Sudeste 8 Norte -- -- -- 81
2020-10-30 07:00:00 11.8 2 Nordeste 9 Sudeste -- -- -- 80
2020-10-30 06:00:00 11.8 3 Sudeste 11 Sudeste -- -- -- 80
2020-10-30 05:00:00 12.4 9 Sudeste 17 Sudeste -- -- -- 78
2020-10-30 04:00:00 11.9 11 Sudeste 14 Sudeste -- -- -- 82
2020-10-30 03:00:00 11.6 3 Sur 9 Este -- -- -- 82
2020-10-30 02:00:00 12.3 2 Sur 8 Este -- -- -- 81
2020-10-30 01:00:00 13.5 4 Este 8 Sudeste -- -- -- 73
2020-10-30 00:00:00 14.4 4 Este 15 Este -- -- -- 68
2020-10-29 23:00:00 15.6 9 Sudeste 18 Sudeste -- -- -- 63
2020-10-29 22:00:00 16 11 Sudeste 19 Sudeste -- -- -- 61
2020-10-29 21:00:00 16.8 14 Sudeste 23 Sur -- -- -- 58
2020-10-29 20:00:00 18.8 12 Sudeste 19 Sudeste -- -- -- 51
2020-10-29 19:00:00 20.2 12 Sur 17 Sur -- -- -- 46
2020-10-29 18:00:00 25 3 Sur 9 Norte -- -- -- 37
2020-10-29 17:00:00 24.5 8 Nordeste 15 Norte -- -- -- 41
2020-10-29 16:00:00 25.2 8 Norte 14 Norte -- -- -- 42
2020-10-29 15:00:00 25.7 5 Noroeste 12 Oeste -- -- -- 35
2020-10-29 14:00:00 25.4 5 Oeste 8 Sudoeste -- -- -- 41
2020-10-29 13:00:00 22.6 5 Noroeste 8 Noroeste -- -- -- 52
2020-10-29 12:00:00 19.9 5 Noroeste 7 Noroeste -- -- -- 60
2020-10-29 11:00:00 17.3 5 Noroeste 12 Norte -- -- -- 66
2020-10-29 10:00:00 15.1 0 Calma 5 Noroeste -- -- -- 77
2020-10-29 09:00:00 12.1 0 Calma 8 Este -- -- -- 86
2020-10-29 08:00:00 8.3 4 Este 9 Norte -- -- -- 93
2020-10-29 07:00:00 9.3 7 Nordeste 14 Sudeste -- -- -- 91
2020-10-29 06:00:00 8.8 0 Calma 4 Este -- -- -- 90
2020-10-29 05:00:00 9.9 4 Nordeste 11 Sudeste -- -- -- 90
2020-10-29 04:00:00 10.5 4 Este 14 Sudeste -- -- -- 89
2020-10-29 03:00:00 9.8 2 Este 10 Sudeste -- -- -- 89
2020-10-29 02:00:00 10.4 7 Este 11 Este -- -- -- 89
2020-10-29 01:00:00 11.3 5 Sudeste 9 Este -- -- -- 85
2020-10-29 00:00:00 12.3 5 Este 8 Este -- -- -- 82
2020-10-28 23:00:00 13.3 3 Este 8 Sudeste -- -- -- 79
2020-10-28 22:00:00 13.1 3 Nordeste 6 Norte -- -- -- 81
2020-10-28 21:00:00 13.8 2 Norte 7 Este -- -- -- 80
2020-10-28 20:00:00 15.4 0 Calma 6 Este -- -- -- 72
2020-10-28 19:00:00 17.4 2 Nordeste 8 Norte -- -- -- 67
2020-10-28 18:00:00 19.7 4 Norte 17 Norte -- -- -- 57
2020-10-28 17:00:00 20.5 10 Norte 19 Norte -- -- -- 54
2020-10-28 16:00:00 20.4 8 Norte 22 Norte -- -- -- 50
2020-10-28 15:00:00 20.5 11 Norte 21 Norte -- -- -- 49
2020-10-28 14:00:00 20 8 Norte 16 Norte -- -- -- 51
2020-10-28 13:00:00 18.5 9 Norte 17 Norte -- -- -- 53
2020-10-28 12:00:00 17.5 6 Norte 15 Norte -- -- -- 57
2020-10-28 11:00:00 15.1 4 Noroeste 9 Noroeste -- -- -- 64
2020-10-28 10:00:00 13 3 Noroeste 6 Sudeste -- -- -- 73
2020-10-28 09:00:00 10.9 0 Calma 7 Sudeste -- -- -- 80
2020-10-28 08:00:00 6.9 3 Sudeste 7 Sudeste -- -- -- 91
2020-10-28 07:00:00 6.7 2 Sudeste 7 Sudeste -- -- -- 91
2020-10-28 06:00:00 7.2 4 Sudeste 8 Sudeste -- -- -- 90
2020-10-28 05:00:00 8.1 3 Nordeste 7 Nordeste -- -- -- 87
2020-10-28 04:00:00 8.1 0 Calma 6 Norte -- -- -- 88
2020-10-28 03:00:00 8.2 2 Este 4 Este -- -- -- 86
2020-10-28 02:00:00 8.5 0 Calma 5 Este -- -- -- 83
2020-10-28 01:00:00 8.6 4 Este 6 Este -- -- -- 81
2020-10-28 00:00:00 8.7 3 Este 7 Este -- -- -- 83
2020-10-27 23:00:00 9.7 0 Calma 9 Este -- -- -- 79
2020-10-27 22:00:00 10.1 5 Este 7 Este -- -- -- 77
2020-10-27 21:00:00 10.9 3 Este 7 Este -- -- -- 73
2020-10-27 20:00:00 12 0 Calma 9 Este -- -- -- 69
2020-10-27 19:00:00 14.1 5 Este 6 Este -- -- -- 64
2020-10-27 18:00:00 17.4 4 Noroeste 14 Noroeste -- -- -- 47
2020-10-27 17:00:00 17.6 12 Noroeste 18 Noroeste -- -- -- 46
2020-10-27 16:00:00 18 8 Noroeste 17 Noroeste -- -- -- 44
2020-10-27 15:00:00 17.7 6 Noroeste 14 Oeste -- -- -- 43
2020-10-27 14:00:00 16.9 4 Norte 12 Noroeste -- -- -- 49
2020-10-27 13:00:00 16.7 6 Norte 10 Noroeste -- -- -- 51
2020-10-27 12:00:00 15.7 4 Oeste 10 Oeste -- -- -- 57
2020-10-27 11:00:00 14.2 5 Oeste 10 Oeste -- -- -- 62
2020-10-27 10:00:00 13.3 4 Sudeste 9 Este -- -- -- 65
2020-10-27 09:00:00 10.6 6 Sudeste 14 Este -- -- -- 77
2020-10-27 08:00:00 6.8 11 Sudeste 16 Sudeste -- -- -- 88
2020-10-27 07:00:00 7.2 13 Sudeste 17 Sudeste -- -- -- 86
2020-10-27 06:00:00 6.7 12 Sudeste 15 Sudeste -- -- -- 89
2020-10-27 05:00:00 5.9 4 Este 13 Sudeste -- -- -- 91
2020-10-27 04:00:00 6.7 9 Sudeste 12 Sudeste -- -- -- 90
2020-10-27 03:00:00 6.2 4 Este 6 Este -- -- -- 92
2020-10-27 02:00:00 7.1 4 Este 8 Sudeste -- -- -- 88
2020-10-27 01:00:00 7.7 0 Calma 15 Sudeste -- -- -- 86
2020-10-27 00:00:00 8.4 4 Este 9 Este -- -- -- 84